Time;durP1;ratioP1;P1;durP2;ratioP2;P2;SDS_P1;SDS_P2;PMS_P1;PMS_P2;Temp;Humidity;BMP_temperature;BMP_pressure;BME280_temperature;BME280_humidity;BME280_pressure;Samples;Min_cycle;Max_cycle;Signal;HPM_P1;HPM_P2
2022/05/25 00:01:21;;;;;;;5.70;5.20;;;10.20;99.90;;;;;;5063205;28;20417;-46
2022/05/25 00:03:47;;;;;;;5.85;5.35;;;10.10;99.90;;;;;;5078476;28;20048;-46
2022/05/25 00:06:12;;;;;;;6.88;4.88;;;10.10;99.90;;;;;;5074180;28;20119;-48
2022/05/25 00:08:40;;;;;;;5.38;4.97;;;10.00;99.90;;;;;;5069488;28;20118;-46
2022/05/25 00:11:07;;;;;;;6.40;5.80;;;10.00;99.90;;;;;;5070463;28;20048;-45
2022/05/25 00:13:33;;;;;;;6.20;5.70;;;10.00;99.90;;;;;;5068358;28;20398;-45
2022/05/25 00:15:58;;;;;;;6.43;5.82;;;10.00;99.90;;;;;;5071501;28;20135;-45
2022/05/25 00:18:24;;;;;;;6.20;5.60;;;10.00;99.90;;;;;;5070592;28;20081;-44
2022/05/25 00:20:50;;;;;;;6.05;5.55;;;10.00;99.90;;;;;;5066094;28;20067;-45
2022/05/25 00:23:15;;;;;;;6.57;5.80;;;10.00;99.90;;;;;;5075131;28;20060;-45
2022/05/25 00:25:41;;;;;;;6.15;5.65;;;10.00;99.90;;;;;;5073922;28;20028;-46
2022/05/25 00:28:11;;;;;;;6.90;6.20;;;10.00;99.90;;;;;;5066837;28;20491;-49
2022/05/25 00:30:39;;;;;;;6.55;5.90;;;10.00;99.90;;;;;;5069687;28;20040;-45
2022/05/25 00:33:05;;;;;;;6.82;6.13;;;10.00;99.90;;;;;;5073768;28;20040;-44
2022/05/25 00:35:32;;;;;;;7.50;6.68;;;9.90;99.90;;;;;;5069307;28;20127;-44
2022/05/25 00:37:58;;;;;;;6.43;5.82;;;9.90;99.90;;;;;;5067547;28;20489;-48
2022/05/25 00:40:34;;;;;;;7.57;6.88;;;9.90;99.90;;;;;;5070622;28;20036;-45
2022/05/25 00:43:00;;;;;;;15.52;7.22;;;9.90;99.90;;;;;;5065230;28;20036;-44
2022/05/25 00:45:25;;;;;;;7.07;5.82;;;9.90;99.90;;;;;;5072092;28;20054;-45
2022/05/25 00:47:52;;;;;;;8.25;6.68;;;;;;;;;;5068549;28;20044;-47
2022/05/25 00:50:22;;;;;;;7.35;6.75;;;9.80;99.90;;;;;;5069093;28;20416;-46
2022/05/25 00:52:49;;;;;;;9.45;6.72;;;9.80;99.90;;;;;;5067337;28;20051;-44
2022/05/25 00:55:26;;;;;;;7.80;7.10;;;9.80;99.90;;;;;;5067907;28;20109;-45
2022/05/25 00:57:55;;;;;;;7.53;6.93;;;9.80;99.90;;;;;;5067578;28;20036;-44
2022/05/25 01:00:26;;;;;;;7.35;6.47;;;9.80;99.90;;;;;;5071287;28;20032;-45
2022/05/25 01:02:57;;;;;;;8.50;7.68;;;9.80;99.90;;;;;;5067770;28;20098;-46
2022/05/25 01:05:37;;;;;;;8.20;7.50;;;9.80;99.90;;;;;;5069494;28;20119;-44
2022/05/25 01:08:27;;;;;;;8.20;7.40;;;9.80;99.90;;;;;;5071891;28;20032;-45
2022/05/25 01:11:11;;;;;;;9.30;8.27;;;9.80;99.90;;;;;;5061576;28;20186;-44
2022/05/25 01:13:51;;;;;;;10.38;8.75;;;9.70;99.90;;;;;;5072563;28;20486;-44
2022/05/25 01:16:28;;;;;;;9.30;8.50;;;9.70;99.90;;;;;;5063726;28;20300;-44
2022/05/25 01:19:37;;;;;;;13.50;8.70;;;9.70;99.90;;;;;;5064946;28;20040;-45
2022/05/25 01:22:39;;;;;;;9.13;8.32;;;9.70;99.90;;;;;;5069851;28;20117;-45
2022/05/25 01:25:20;;;;;;;9.38;8.50;;;9.60;99.90;;;;;;5079148;28;20052;-45
2022/05/25 01:27:48;;;;;;;9.68;8.68;;;9.70;99.90;;;;;;5071226;28;20049;-46
2022/05/25 01:30:17;;;;;;;8.93;8.23;;;9.70;99.90;;;;;;5071250;28;20047;-43
2022/05/25 01:33:23;;;;;;;11.80;8.93;;;9.60;99.90;;;;;;5069685;28;20254;-44
2022/05/25 01:35:57;;;;;;;9.75;8.77;;;9.70;99.90;;;;;;5070424;28;20052;-44
2022/05/25 01:38:31;;;;;;;9.48;8.35;;;9.60;99.90;;;;;;5071855;28;20082;-44
2022/05/25 01:41:06;;;;;;;9.80;8.32;;;9.60;99.90;;;;;;5071009;28;20413;-45
2022/05/25 01:43:38;;;;;;;10.82;9.73;;;9.60;99.90;;;;;;5073214;28;20036;-44
2022/05/25 01:46:31;;;;;;;9.80;8.80;;;9.60;99.90;;;;;;5069151;28;20052;-45
2022/05/25 01:48:58;;;;;;;9.63;8.82;;;9.60;99.90;;;;;;5074602;28;20432;-44
2022/05/25 01:51:35;;;;;;;9.73;8.80;;;9.60;99.90;;;;;;5096227;22;20467;-47
2022/05/25 01:54:03;;;;;;;9.90;9.07;;;9.60;99.90;;;;;;5062317;28;20504;-45
2022/05/25 01:56:32;;;;;;;10.25;9.25;;;9.60;99.90;;;;;;5059579;28;20080;-44
2022/05/25 01:59:01;;;;;;;10.32;9.20;;;9.60;99.90;;;;;;5062189;28;20037;-44
2022/05/25 02:01:27;;;;;;;10.95;9.95;;;9.60;99.90;;;;;;5058698;28;20055;-44
2022/05/25 02:07:01;;;;;;;11.00;9.90;;;9.60;99.90;;;;;;5061395;28;20055;-45
2022/05/25 02:09:56;;;;;;;11.90;10.80;;;9.60;99.90;;;;;;5058167;28;20453;-44
2022/05/25 02:12:46;;;;;;;12.02;10.82;;;9.50;99.90;;;;;;5059593;28;20040;-46
2022/05/25 02:15:17;;;;;;;12.00;10.90;;;9.60;99.90;;;;;;5059285;28;20677;-44
2022/05/25 02:18:04;;;;;;;12.18;11.02;;;9.60;99.90;;;;;;5061107;28;20063;-46
2022/05/25 02:20:54;;;;;;;12.88;11.60;;;9.60;99.90;;;;;;5061080;28;20439;-45
2022/05/25 02:23:34;;;;;;;13.57;12.48;;;9.60;99.90;;;;;;5059880;28;20028;-47
2022/05/25 02:26:14;;;;;;;14.27;12.88;;;9.60;99.90;;;;;;5056889;28;20048;-47
2022/05/25 02:29:07;;;;;;;13.55;12.27;;;9.60;99.90;;;;;;5059746;28;20050;-46
2022/05/25 02:31:38;;;;;;;14.68;13.20;;;9.60;99.90;;;;;;5060216;28;20064;-49
2022/05/25 02:34:06;;;;;;;13.45;12.20;;;9.60;99.90;;;;;;5055233;28;20513;-46
2022/05/25 02:36:35;;;;;;;13.70;12.30;;;9.60;99.90;;;;;;5057505;28;20143;-47
2022/05/25 02:39:09;;;;;;;15.32;13.82;;;9.50;99.90;;;;;;5058325;28;20033;-47
2022/05/25 02:41:42;;;;;;;15.30;13.68;;;9.50;99.90;;;;;;5061253;28;20402;-48
2022/05/25 02:44:08;;;;;;;14.80;13.50;;;9.50;99.90;;;;;;5061976;28;20044;-47
2022/05/25 02:46:34;;;;;;;16.05;14.55;;;9.50;99.90;;;;;;5056487;28;20040;-48
2022/05/25 02:48:59;;;;;;;14.75;13.23;;;9.50;99.90;;;;;;5057094;28;20079;-47
2022/05/25 02:51:25;;;;;;;15.90;14.40;;;9.40;99.90;;;;;;5047274;28;20172;-49
2022/05/25 02:53:51;;;;;;;15.63;13.80;;;9.40;99.90;;;;;;5039017;28;20053;-47
2022/05/25 02:56:16;;;;;;;15.93;14.35;;;9.40;99.90;;;;;;5038959;28;20088;-46
2022/05/25 02:58:42;;;;;;;15.68;14.23;;;9.40;99.90;;;;;;5041487;28;20048;-48
2022/05/25 03:01:07;;;;;;;18.02;15.32;;;9.40;99.90;;;;;;5040733;28;20048;-46
2022/05/25 03:03:35;;;;;;;15.68;14.18;;;9.40;99.90;;;;;;5039412;28;20044;-50
2022/05/25 03:06:01;;;;;;;;;;;9.30;99.90;;;;;;5035293;28;20404;-49
2022/05/25 03:08:27;;;;;;;16.25;14.75;;;9.30;99.90;;;;;;5038387;28;19920;-46
2022/05/25 03:10:53;;;;;;;17.13;15.52;;;9.40;99.90;;;;;;5041303;28;20049;-47
2022/05/25 03:13:18;;;;;;;17.00;15.30;;;9.40;99.90;;;;;;5041604;28;20047;-46
2022/05/25 03:15:44;;;;;;;17.98;16.27;;;9.40;99.90;;;;;;5042703;28;20043;-48
2022/05/25 03:18:09;;;;;;;17.88;15.77;;;9.30;99.90;;;;;;5040519;28;20444;-47
2022/05/25 03:20:35;;;;;;;17.33;15.73;;;9.30;99.90;;;;;;5044650;28;20045;-47
2022/05/25 03:23:00;;;;;;;18.50;16.80;;;9.30;99.90;;;;;;5039111;28;20127;-47
2022/05/25 03:25:26;;;;;;;18.48;16.60;;;9.30;99.90;;;;;;5040852;28;20136;-47
2022/05/25 03:27:52;;;;;;;20.20;18.15;;;9.30;99.90;;;;;;5039442;28;20131;-48
2022/05/25 03:30:20;;;;;;;19.30;17.45;;;9.30;99.90;;;;;;5038319;28;20033;-47
2022/05/25 03:32:45;;;;;;;;;;;9.30;99.90;;;;;;5041629;28;20408;-46
2022/05/25 03:35:11;;;;;;;20.23;18.23;;;9.30;99.90;;;;;;5041267;28;19928;-46
2022/05/25 03:37:38;;;;;;;20.80;18.80;;;9.40;99.90;;;;;;5038554;28;20132;-49
2022/05/25 03:40:05;;;;;;;21.15;19.05;;;9.40;99.90;;;;;;5037551;28;20037;-46
2022/05/25 03:42:31;;;;;;;21.63;19.45;;;9.40;99.90;;;;;;5037157;28;20463;-46
2022/05/25 03:44:57;;;;;;;21.73;19.35;;;9.60;99.90;;;;;;5032293;28;20099;-47
2022/05/25 03:47:22;;;;;;;23.48;21.10;;;9.40;99.90;;;;;;5040235;28;20510;-47
2022/05/25 03:49:48;;;;;;;20.90;18.75;;;;;;;;;;5036762;28;20613;-49
2022/05/25 03:52:20;;;;;;;22.20;20.00;;;9.40;99.90;;;;;;5039302;28;20042;-47
2022/05/25 03:54:45;;;;;;;22.63;19.98;;;9.60;99.90;;;;;;5043786;28;20546;-47
2022/05/25 03:57:11;;;;;;;22.15;19.83;;;9.60;99.90;;;;;;5036218;28;20070;-51
2022/05/25 03:59:37;;;;;;;21.55;18.75;;;9.70;99.90;;;;;;5037103;28;20033;-47
2022/05/25 04:02:02;;;;;;;21.88;19.65;;;9.70;99.90;;;;;;5039374;28;20033;-48
2022/05/25 04:04:32;;;;;;;23.15;20.65;;;;;;;;;;5040288;28;20107;-47
2022/05/25 04:06:57;;;;;;;22.15;19.95;;;;;;;;;;5035251;28;20053;-49
2022/05/25 04:09:23;;;;;;;21.80;19.55;;;9.50;99.90;;;;;;5042107;28;20087;-46
2022/05/25 04:11:49;;;;;;;21.20;19.10;;;9.80;99.90;;;;;;5038991;28;20055;-48
2022/05/25 04:14:15;;;;;;;21.60;19.60;;;9.90;99.90;;;;;;5039966;28;20048;-47
2022/05/25 04:16:45;;;;;;;21.58;19.48;;;9.80;99.90;;;;;;5038889;28;20091;-49
2022/05/25 04:19:11;;;;;;;21.30;19.15;;;9.60;99.90;;;;;;5046613;28;20387;-49
2022/05/25 04:21:37;;;;;;;22.60;20.27;;;9.90;99.90;;;;;;5038433;28;20037;-46
2022/05/25 04:24:03;;;;;;;22.63;20.35;;;10.00;99.90;;;;;;5040299;28;20044;-48
2022/05/25 04:26:30;;;;;;;22.90;20.70;;;9.90;99.90;;;;;;5037681;28;20124;-48
2022/05/25 04:28:57;;;;;;;21.85;19.58;;;10.00;99.90;;;;;;5039586;28;20505;-48
2022/05/25 04:31:22;;;;;;;23.48;21.08;;;10.10;99.90;;;;;;5034341;28;20048;-48
2022/05/25 04:33:48;;;;;;;24.98;22.40;;;;;;;;;;5039924;28;20123;-47
2022/05/25 04:36:14;;;;;;;22.88;20.60;;;12.30;99.90;;;;;;5041550;28;20041;-47
2022/05/25 04:38:40;;;;;;;19.95;18.05;;;13.00;99.90;;;;;;5038305;28;20052;-51
2022/05/25 04:41:06;;;;;;;20.60;18.63;;;13.90;99.90;;;;;;5040757;28;20037;-46
2022/05/25 04:43:31;;;;;;;19.00;17.13;;;14.60;99.90;;;;;;5035285;28;20048;-48
2022/05/25 04:45:59;;;;;;;20.83;17.70;;;15.00;99.90;;;;;;5033255;28;20125;-47
2022/05/25 04:48:25;;;;;;;18.63;16.83;;;15.50;99.90;;;;;;5042556;28;20128;-47
2022/05/25 04:50:52;;;;;;;18.13;16.52;;;16.00;99.90;;;;;;5035724;28;20099;-48
2022/05/25 04:53:20;;;;;;;17.67;15.70;;;16.60;99.90;;;;;;5033527;28;20042;-47
2022/05/25 04:58:33;;;;;;;16.75;13.57;;;17.30;99.90;;;;;;5036357;28;20048;-46
2022/05/25 05:00:59;;;;;;;13.65;12.45;;;17.90;99.90;;;;;;5039579;28;20056;-48
2022/05/25 05:03:26;;;;;;;14.93;13.55;;;18.20;99.90;;;;;;5037470;28;20036;-47
2022/05/25 05:05:53;;;;;;;13.47;12.17;;;18.60;99.90;;;;;;5037571;28;20045;-47
2022/05/25 05:08:19;;;;;;;14.20;12.90;;;18.70;99.90;;;;;;5035086;28;20044;-47
2022/05/25 05:10:45;;;;;;;13.15;11.85;;;19.20;99.90;;;;;;5033408;28;20087;-49
2022/05/25 05:13:11;;;;;;;13.18;12.05;;;19.50;99.90;;;;;;5035925;28;20123;-51
2022/05/25 05:15:39;;;;;;;13.02;11.93;;;19.80;99.90;;;;;;5032613;28;20632;-48
2022/05/25 05:18:05;;;;;;;13.25;11.95;;;20.00;99.90;;;;;;5036180;28;20041;-48
2022/05/25 05:20:31;;;;;;;12.80;11.40;;;20.20;99.90;;;;;;5037760;28;20552;-49
2022/05/25 05:22:57;;;;;;;13.30;11.80;;;20.60;99.90;;;;;;5038735;28;20171;-49
2022/05/25 05:25:23;;;;;;;13.10;11.80;;;20.80;99.90;;;;;;5038497;28;20124;-49
2022/05/25 05:27:49;;;;;;;13.15;11.93;;;20.90;99.90;;;;;;5035239;28;20032;-49
2022/05/25 05:30:18;;;;;;;12.35;11.25;;;21.20;99.90;;;;;;5033834;28;20075;-49
2022/05/25 05:32:44;;;;;;;12.77;11.70;;;21.30;99.90;;;;;;5040893;28;20041;-48
2022/05/25 05:35:10;;;;;;;12.32;11.13;;;21.60;99.90;;;;;;5032794;28;20459;-48
2022/05/25 05:37:45;;;;;;;11.48;10.35;;;21.90;99.90;;;;;;5029535;28;20048;-48
2022/05/25 05:40:14;;;;;;;12.48;11.25;;;22.20;99.90;;;;;;5036184;28;20060;-46
2022/05/25 05:42:41;;;;;;;12.18;11.07;;;22.30;99.90;;;;;;5039567;28;20057;-51
2022/05/25 05:45:12;;;;;;;12.10;11.10;;;22.50;99.90;;;;;;5034223;28;20060;-46
2022/05/25 05:47:45;;;;;;;11.38;10.40;;;22.70;99.90;;;;;;5036460;28;20040;-47
2022/05/25 05:50:12;;;;;;;13.63;11.05;;;22.30;98.60;;;;;;5035610;28;20271;-46
2022/05/25 05:52:37;;;;;;;12.32;11.15;;;22.60;99.90;;;;;;5039179;28;20124;-47
2022/05/25 05:55:05;;;;;;;12.52;11.23;;;22.90;99.90;;;;;;5037919;28;20248;-46
2022/05/25 05:57:33;;;;;;;12.20;11.20;;;22.90;99.90;;;;;;5013431;28;20041;-46
2022/05/25 05:59:59;;;;;;;12.02;10.90;;;23.10;99.90;;;;;;5035415;28;20071;-48
2022/05/25 06:02:24;;;;;;;11.45;9.98;;;23.10;99.90;;;;;;5034061;28;20519;-47
2022/05/25 06:04:50;;;;;;;12.02;10.80;;;23.60;99.90;;;;;;5036328;28;20041;-49
2022/05/25 06:07:15;;;;;;;11.00;9.95;;;23.70;99.90;;;;;;5032464;28;20041;-47
2022/05/25 06:09:41;;;;;;;11.23;10.20;;;23.40;99.70;;;;;;5032950;28;20113;-46
2022/05/25 06:12:07;;;;;;;12.30;11.00;;;23.70;99.90;;;;;;5034697;28;20131;-48
2022/05/25 06:14:32;;;;;;;13.07;10.30;;;23.90;99.40;;;;;;5021051;28;20494;-46
2022/05/25 06:19:42;;;;;;;11.45;10.23;;;24.30;97.40;;;;;;5040500;28;20057;-48
2022/05/25 06:22:12;;;;;;;10.65;9.50;;;23.90;96.40;;;;;;5042541;28;20044;-47
2022/05/25 06:24:50;;;;;;;13.57;9.10;;;24.20;97.60;;;;;;5043769;28;20148;-46
2022/05/25 06:27:17;;;;;;;11.18;9.85;;;24.00;94.60;;;;;;5045395;28;20142;-47
2022/05/25 06:29:47;;;;;;;11.32;9.45;;;24.00;97.60;;;;;;5043546;28;20037;-49
2022/05/25 06:32:13;;;;;;;10.13;9.23;;;24.20;97.30;;;;;;5031002;28;20168;-46
2022/05/25 06:34:40;;;;;;;12.20;9.55;;;24.30;97.00;;;;;;5035939;28;20143;-48
2022/05/25 06:37:07;;;;;;;11.57;8.35;;;23.70;95.80;;;;;;5035921;28;20072;-46
2022/05/25 06:39:36;;;;;;;9.97;8.93;;;23.50;96.30;;;;;;5035369;28;20041;-47
2022/05/25 06:42:03;;;;;;;10.18;9.18;;;23.30;96.30;;;;;;5037665;28;20040;-46
2022/05/25 06:44:29;;;;;;;11.57;9.57;;;23.30;97.00;;;;;;5041351;28;20051;-48
2022/05/25 06:46:54;;;;;;;10.43;8.48;;;23.20;98.10;;;;;;5039653;28;20033;-46
2022/05/25 06:49:20;;;;;;;9.63;8.63;;;23.00;96.40;;;;;;5036429;28;20045;-47
2022/05/25 06:51:45;;;;;;;10.95;8.93;;;22.60;98.30;;;;;;5039772;28;20057;-49
2022/05/25 06:54:15;;;;;;;10.80;9.18;;;22.00;99.10;;;;;;5036770;28;20669;-47
2022/05/25 06:56:41;;;;;;;8.75;7.85;;;21.90;99.90;;;;;;5041902;28;20120;-48
2022/05/25 06:59:07;;;;;;;11.45;7.82;;;21.80;99.90;;;;;;5039179;28;20187;-50
2022/05/25 07:01:34;;;;;;;8.02;7.20;;;21.70;99.90;;;;;;5041194;28;20051;-52
2022/05/25 07:04:00;;;;;;;8.98;7.88;;;21.90;99.90;;;;;;5046977;28;20475;-49
2022/05/25 07:06:26;;;;;;;8.15;7.32;;;22.30;99.90;;;;;;5037109;28;20093;-48
2022/05/25 07:08:52;;;;;;;7.68;6.82;;;22.60;99.90;;;;;;5043082;28;20037;-51
2022/05/25 07:11:18;;;;;;;9.90;7.07;;;23.00;99.90;;;;;;5042126;28;20072;-48
2022/05/25 07:13:44;;;;;;;9.23;6.88;;;23.20;99.90;;;;;;5039432;28;20049;-49
2022/05/25 07:16:13;;;;;;;9.95;6.05;;;23.40;98.70;;;;;;5042905;28;20044;-47
2022/05/25 07:18:39;;;;;;;8.00;6.45;;;23.50;97.60;;;;;;5046027;28;21828;-47
2022/05/25 07:21:08;;;;;;;7.25;5.95;;;23.60;97.30;;;;;;5038618;28;20098;-47
2022/05/25 07:23:36;;;;;;;9.30;6.57;;;23.20;95.50;;;;;;5045081;28;20175;-46
2022/05/25 07:26:03;;;;;;;8.60;6.43;;;23.40;97.40;;;;;;5037022;28;20116;-47
2022/05/25 07:28:29;;;;;;;6.88;5.72;;;23.60;97.60;;;;;;5040538;28;20107;-48
2022/05/25 07:30:59;;;;;;;7.90;5.72;;;23.40;94.80;;;;;;5041456;28;20489;-46
2022/05/25 07:33:24;;;;;;;7.28;5.13;;;23.40;96.70;;;;;;5050586;28;20036;-46
2022/05/25 07:35:51;;;;;;;6.05;5.40;;;23.10;94.30;;;;;;5053035;28;20392;-47
2022/05/25 07:38:17;;;;;;;7.28;6.03;;;22.80;96.70;;;;;;5043632;28;20049;-47
2022/05/25 07:40:43;;;;;;;8.80;5.20;;;22.40;96.30;;;;;;5042069;28;20037;-47
2022/05/25 07:43:16;;;;;;;8.82;5.43;;;21.40;97.50;;;;;;5043127;28;20045;-47
2022/05/25 07:45:44;;;;;;;6.25;4.93;;;20.80;99.40;;;;;;5041271;28;20123;-47
2022/05/25 07:48:10;;;;;;;5.43;4.90;;;20.60;99.90;;;;;;5050801;28;20054;-48
2022/05/25 07:50:37;;;;;;;7.43;5.35;;;20.60;99.90;;;;;;5034033;28;20038;-49
2022/05/25 07:53:55;;;;;;;7.15;5.60;;;20.20;99.90;;;;;;5032254;28;20113;-48
2022/05/25 07:55:50;;;;;;;6.88;4.80;;;20.30;99.90;;;;;;5040282;28;20553;-49
2022/05/25 07:58:15;;;;;;;4.88;4.45;;;20.30;99.90;;;;;;5047265;28;20037;-49
2022/05/25 08:00:41;;;;;;;5.68;5.10;;;20.20;99.90;;;;;;5038149;28;20075;-48
2022/05/25 08:05:54;;;;;;;4.97;4.47;;;19.90;99.90;;;;;;5045247;28;20099;-50
2022/05/25 08:08:25;;;;;;;5.18;4.63;;;20.00;99.90;;;;;;5044467;28;20672;-46
2022/05/25 08:11:10;;;;;;;6.57;4.80;;;19.80;99.90;;;;;;5040816;28;20115;-49
2022/05/25 08:13:38;;;;;;;7.70;4.70;;;19.70;99.90;;;;;;5044800;28;20045;-53
2022/05/25 08:16:03;;;;;;;8.07;4.72;;;19.70;99.90;;;;;;5043609;28;20056;-50
2022/05/25 08:18:29;;;;;;;5.07;4.32;;;19.60;99.90;;;;;;5042508;28;20045;-48
2022/05/25 08:20:54;;;;;;;5.40;4.90;;;19.40;99.90;;;;;;5044386;28;20040;-49
2022/05/25 08:23:20;;;;;;;5.50;4.57;;;19.40;99.90;;;;;;5044689;28;21632;-47
2022/05/25 08:25:46;;;;;;;7.20;4.15;;;19.60;99.90;;;;;;5041286;28;20132;-47
2022/05/25 08:28:12;;;;;;;5.15;4.10;;;19.70;99.90;;;;;;5058925;28;20460;-47
2022/05/25 08:30:39;;;;;;;4.70;4.25;;;19.70;99.90;;;;;;5045470;28;20094;-47
2022/05/25 08:33:05;;;;;;;7.43;4.53;;;19.80;99.90;;;;;;5046468;28;20045;-45
2022/05/25 08:35:31;;;;;;;7.07;4.68;;;19.90;99.90;;;;;;5044372;28;20044;-46
2022/05/25 08:37:58;;;;;;;11.80;4.50;;;20.00;99.90;;;;;;5042601;28;20432;-47
2022/05/25 08:40:25;;;;;;;4.90;4.15;;;20.10;99.90;;;;;;5040504;28;20041;-51
2022/05/25 08:42:56;;;;;;;;;;;20.00;99.90;;;;;;5044913;28;20060;-49
2022/05/25 08:45:27;;;;;;;6.25;4.05;;;19.90;99.90;;;;;;5042348;28;19927;-47
2022/05/25 08:47:57;;;;;;;6.18;3.92;;;19.90;99.90;;;;;;5041042;28;20052;-48
2022/05/25 08:50:23;;;;;;;9.05;4.35;;;20.00;99.90;;;;;;5049530;28;20052;-48
2022/05/25 08:52:53;;;;;;;5.65;4.18;;;20.10;99.90;;;;;;5048999;28;20049;-48
2022/05/25 08:55:38;;;;;;;6.35;4.05;;;20.20;99.90;;;;;;5051639;28;20045;-49
2022/05/25 08:58:07;;;;;;;4.82;3.40;;;20.40;99.90;;;;;;5051569;28;20045;-49
2022/05/25 09:00:34;;;;;;;4.80;3.00;;;20.50;99.90;;;;;;5051275;28;20505;-48
2022/05/25 09:03:16;;;;;;;;;;;20.50;99.90;;;;;;5051140;28;20127;-48
2022/05/25 09:06:07;;;;;;;4.75;3.70;;;20.60;99.90;;;;;;5051963;28;19944;-49
2022/05/25 09:08:57;;;;;;;4.63;3.58;;;20.90;99.90;;;;;;5032714;28;20052;-50
2022/05/25 09:11:34;;;;;;;4.80;3.20;;;21.00;99.90;;;;;;5031517;28;20045;-48
2022/05/25 09:14:06;;;;;;;5.03;3.60;;;21.10;99.90;;;;;;5031504;28;20321;-51
2022/05/25 09:16:36;;;;;;;4.57;4.07;;;20.80;99.90;;;;;;5031402;28;20049;-49
2022/05/25 09:19:13;;;;;;;6.97;4.40;;;20.90;99.90;;;;;;5031741;28;20116;-49
2022/05/25 09:21:52;;;;;;;7.90;3.97;;;20.90;99.90;;;;;;5031325;28;20081;-49
2022/05/25 09:24:21;;;;;;;5.07;3.30;;;21.00;99.90;;;;;;5030192;28;20068;-48
2022/05/25 09:26:48;;;;;;;4.90;3.50;;;20.90;99.90;;;;;;5045624;28;20045;-48
2022/05/25 09:29:14;;;;;;;4.25;3.60;;;20.80;99.90;;;;;;5041104;28;20444;-48
2022/05/25 09:32:04;;;;;;;5.13;3.00;;;21.30;99.90;;;;;;5039707;28;20136;-49
2022/05/25 09:34:54;;;;;;;4.32;3.25;;;21.40;99.90;;;;;;5032070;28;20041;-52
2022/05/25 09:37:34;;;;;;;4.45;3.15;;;21.60;99.50;;;;;;5045997;28;20478;-49
2022/05/25 09:40:10;;;;;;;5.93;3.90;;;21.50;99.90;;;;;;5032799;28;20484;-49
2022/05/25 09:42:37;;;;;;;4.70;3.63;;;21.30;99.90;;;;;;5032332;28;20088;-51
2022/05/25 09:45:14;;;;;;;4.45;3.20;;;21.00;99.90;;;;;;5050087;28;20487;-52
2022/05/25 09:47:45;;;;;;;6.82;3.38;;;20.90;99.40;;;;;;5045162;28;20138;-50
2022/05/25 09:50:25;;;;;;;3.90;3.33;;;20.70;99.90;;;;;;5035436;28;20451;-52
2022/05/25 09:52:52;;;;;;;3.75;3.28;;;20.70;99.90;;;;;;5052745;28;20049;-52
2022/05/25 09:55:35;;;;;;;5.13;3.25;;;20.70;99.90;;;;;;5045312;28;20365;-51
2022/05/25 09:58:11;;;;;;;4.65;3.38;;;20.60;99.90;;;;;;5041379;28;20049;-49
2022/05/25 10:00:37;;;;;;;5.28;3.88;;;20.80;99.90;;;;;;5051510;28;20049;-50
2022/05/25 10:03:06;;;;;;;3.97;3.50;;;21.00;99.90;;;;;;5046216;28;20051;-49
2022/05/25 10:05:47;;;;;;;5.15;3.10;;;21.20;99.90;;;;;;5051458;28;20037;-50
2022/05/25 10:08:26;;;;;;;3.83;3.20;;;21.40;99.90;;;;;;5050661;28;20437;-49
2022/05/25 10:10:59;;;;;;;2.78;2.35;;;21.30;99.90;;;;;;5051112;28;20064;-49
2022/05/25 10:13:36;;;;;;;3.67;2.40;;;21.30;98.20;;;;;;5047771;28;20501;-48
2022/05/25 10:16:20;;;;;;;7.72;2.30;;;21.70;99.90;;;;;;5049612;28;20049;-53
2022/05/25 10:18:48;;;;;;;4.05;2.20;;;21.50;95.40;;;;;;5049374;28;20420;-48
2022/05/25 10:21:35;;;;;;;4.22;2.05;;;21.80;95.20;;;;;;5048742;28;20581;-48
2022/05/25 10:24:03;;;;;;;4.03;2.03;;;21.60;96.00;;;;;;5046560;28;20112;-51
2022/05/25 10:26:38;;;;;;;2.63;2.22;;;21.90;96.90;;;;;;5050688;28;20045;-48
2022/05/25 10:29:10;;;;;;;4.25;2.70;;;21.90;95.40;;;;;;5050030;28;20041;-50
2022/05/25 10:37:39;;;;;;;3.90;2.17;;;20.90;95.60;;;;;;5033668;28;20148;-51
2022/05/25 10:40:08;;;;;;;3.92;2.47;;;20.40;95.00;;;;;;5041840;28;20094;-51
2022/05/25 10:42:44;;;;;;;4.82;2.97;;;20.20;96.50;;;;;;5056008;28;20056;-53
2022/05/25 10:45:18;;;;;;;2.88;2.50;;;19.80;98.40;;;;;;5054346;28;20395;-49
2022/05/25 10:47:54;;;;;;;3.63;2.20;;;19.70;98.60;;;;;;5046465;28;20073;-52
2022/05/25 10:50:47;;;;;;;3.17;2.33;;;19.90;99.80;;;;;;5039872;28;20604;-48
2022/05/25 10:56:42;;;;;;;3.05;2.28;;;20.30;99.50;;;;;;5053253;28;20430;-48
2022/05/25 10:59:26;;;;;;;3.45;2.60;;;20.20;99.90;;;;;;5045458;28;20517;-49
2022/05/25 11:02:07;;;;;;;2.40;2.20;;;20.00;99.80;;;;;;5040409;28;20048;-49
2022/05/25 11:05:02;;;;;;;2.70;2.50;;;19.80;99.80;;;;;;5047497;28;20094;-48
2022/05/25 11:07:39;;;;;;;3.42;2.65;;;19.50;99.90;;;;;;5047022;28;20450;-50
2022/05/25 11:10:20;;;;;;;4.45;2.65;;;19.90;99.90;;;;;;5052175;28;20083;-48
2022/05/25 11:13:01;;;;;;;3.65;2.88;;;20.40;99.90;;;;;;5043184;28;20044;-51
2022/05/25 11:15:45;;;;;;;4.97;3.10;;;20.90;99.90;;;;;;5049090;28;20124;-49
2022/05/25 11:18:13;;;;;;;6.15;2.78;;;21.30;99.90;;;;;;5040650;28;20045;-49
2022/05/25 11:20:57;;;;;;;6.80;2.00;;;21.10;96.40;;;;;;5035303;28;20059;-49
2022/05/25 11:23:59;;;;;;;2.95;2.40;;;21.00;94.80;;;;;;5036410;28;20040;-48
2022/05/25 11:26:43;;;;;;;3.22;2.45;;;21.10;96.80;;;;;;5049635;28;20095;-50
2022/05/25 11:29:36;;;;;;;3.50;3.20;;;21.40;98.30;;;;;;5036852;28;20410;-54
2022/05/25 11:32:24;;;;;;;6.05;3.65;;;21.40;96.10;;;;;;5042707;28;20057;-50
2022/05/25 11:35:11;;;;;;;5.68;3.97;;;21.20;94.60;;;;;;5048228;28;20036;-50
2022/05/25 11:38:08;;;;;;;30.25;3.20;;;21.20;96.20;;;;;;5043355;28;20630;-51
2022/05/25 11:40:52;;;;;;;4.00;3.35;;;21.20;93.70;;;;;;5041162;28;20046;-51
2022/05/25 11:43:27;;;;;;;8.30;3.75;;;21.10;93.10;;;;;;5036174;28;20102;-48
2022/05/25 11:46:08;;;;;;;4.05;3.75;;;21.20;92.70;;;;;;5037247;28;20049;-47
2022/05/25 11:49:03;;;;;;;5.00;3.55;;;21.20;96.40;;;;;;5043435;28;20044;-49
2022/05/25 11:51:41;;;;;;;4.75;4.35;;;21.10;92.70;;;;;;5039611;28;20678;-53
2022/05/25 11:54:34;;;;;;;7.82;5.45;;;20.90;93.10;;;;;;5044600;28;20064;-49
2022/05/25 11:57:32;;;;;;;7.63;4.70;;;21.50;93.10;;;;;;5043151;28;20102;-52
2022/05/25 12:00:14;;;;;;;6.43;3.65;;;22.20;93.30;;;;;;5045757;28;20072;-50
2022/05/25 12:02:49;;;;;;;5.53;3.97;;;22.20;90.40;;;;;;5043652;28;20048;-53
2022/05/25 12:05:27;;;;;;;6.05;4.03;;;22.30;90.20;;;;;;5043821;28;20548;-50
2022/05/25 12:08:26;;;;;;;5.28;4.03;;;22.20;90.00;;;;;;5048038;28;20802;-49
2022/05/25 12:11:23;;;;;;;5.22;4.00;;;22.00;83.20;;;;;;5030357;28;20127;-50
2022/05/25 12:13:57;;;;;;;8.75;4.28;;;21.70;87.30;;;;;;5032134;28;20387;-53
2022/05/25 12:16:34;;;;;;;7.03;3.58;;;21.40;90.00;;;;;;5030983;28;20053;-49
2022/05/25 12:19:06;;;;;;;6.17;3.23;;;21.20;89.10;;;;;;5032164;28;20559;-54
2022/05/25 12:21:33;;;;;;;7.35;3.70;;;20.70;83.80;;;;;;5031860;28;20053;-51
2022/05/25 12:24:13;;;;;;;7.15;3.33;;;20.40;89.90;;;;;;5031666;28;20045;-50
2022/05/25 12:26:39;;;;;;;10.57;3.88;;;20.00;89.30;;;;;;5036828;28;20553;-49
2022/05/25 12:29:18;;;;;;;15.35;5.20;;;20.00;91.20;;;;;;5051679;28;20037;-50
2022/05/25 12:31:44;;;;;;;14.52;5.60;;;19.90;92.10;;;;;;5049392;28;20102;-48
2022/05/25 12:34:15;;;;;;;8.40;4.77;;;19.70;92.70;;;;;;5048151;28;20040;-49
2022/05/25 12:36:44;;;;;;;7.22;4.80;;;19.50;94.90;;;;;;5048370;28;20047;-50
2022/05/25 12:39:10;;;;;;;8.43;5.43;;;19.60;96.70;;;;;;5050722;28;20048;-49
2022/05/25 12:41:39;;;;;;;5.85;5.28;;;19.90;97.70;;;;;;5044299;28;20041;-48
2022/05/25 12:50:50;;;;;;;5.22;3.28;;;20.70;92.60;;;;;;5049059;28;20084;-52
2022/05/25 12:53:38;;;;;;;3.22;2.88;;;21.00;92.50;;;;;;5048319;28;20130;-49
2022/05/25 12:56:35;;;;;;;4.40;3.13;;;21.00;91.20;;;;;;5050683;28;20518;-49
2022/05/25 12:59:10;;;;;;;6.05;2.70;;;21.20;91.30;;;;;;5041364;28;20405;-50
2022/05/25 13:01:39;;;;;;;4.18;2.22;;;21.20;90.50;;;;;;5048642;28;20513;-49
2022/05/25 13:04:38;;;;;;;4.55;2.40;;;21.00;91.80;;;;;;5050562;28;20045;-49
2022/05/25 13:07:08;;;;;;;4.50;2.33;;;21.10;91.70;;;;;;5050602;28;20083;-50
2022/05/25 13:09:40;;;;;;;3.90;2.15;;;21.10;92.30;;;;;;5034868;28;20471;-48
2022/05/25 13:12:40;;;;;;;3.22;1.75;;;21.20;92.00;;;;;;5047441;28;20064;-49
2022/05/25 13:15:31;;;;;;;4.88;1.88;;;21.10;90.70;;;;;;5048878;28;20492;-50
2022/05/25 13:17:58;;;;;;;2.90;1.95;;;20.90;91.10;;;;;;5049756;28;20065;-48
2022/05/25 13:20:27;;;;;;;2.72;1.58;;;20.50;90.30;;;;;;5050662;28;20041;-52
2022/05/25 13:23:00;;;;;;;3.42;1.42;;;20.40;92.10;;;;;;5054644;28;20122;-49
2022/05/25 13:25:57;;;;;;;2.53;1.50;;;20.30;94.30;;;;;;5042287;28;20135;-49
2022/05/25 13:28:42;;;;;;;3.47;1.30;;;20.30;94.60;;;;;;5052818;28;20079;-48
2022/05/25 13:31:25;;;;;;;2.63;1.17;;;20.50;94.70;;;;;;5038521;28;20049;-49
2022/05/25 13:33:52;;;;;;;3.72;1.35;;;20.40;94.30;;;;;;5053979;28;20045;-49
2022/05/25 13:36:21;;;;;;;3.47;1.53;;;20.10;93.60;;;;;;5053609;28;20044;-49
2022/05/25 13:39:00;;;;;;;4.95;1.10;;;19.80;93.70;;;;;;5051038;28;20319;-52